Time;durP1;ratioP1;P1;durP2;ratioP2;P2;SDS_P1;SDS_P2;PMS_P1;PMS_P2;Temp;Humidity;BMP_temperature;BMP_pressure;BME280_temperature;BME280_humidity;BME280_pressure;Samples;Min_cycle;Max_cycle;Signal;HPM_P1;HPM_P2
2021/11/27 00:00:41;;;;;;;114.47;53.45;;;;;;;5.89;81.41;99116.25;5049826;28;20493;-21
2021/11/27 00:03:07;;;;;;;218.10;92.57;;;;;;;5.78;81.54;99086.00;5032102;28;20108;-21
2021/11/27 00:05:34;;;;;;;85.45;43.17;;;;;;;6.23;80.79;99101.84;5050173;28;20095;-21
2021/11/27 00:08:00;;;;;;;79.78;42.63;;;;;;;5.92;81.17;99094.66;5049039;28;20443;-21
2021/11/27 00:10:27;;;;;;;76.80;40.67;;;;;;;5.99;81.23;99084.88;5049968;28;20040;-21
2021/11/27 00:12:52;;;;;;;76.07;40.58;;;;;;;6.01;80.89;99084.69;5031938;28;20033;-21
2021/11/27 00:15:20;;;;;;;78.20;39.17;;;;;;;5.83;81.71;99095.94;5049588;28;20519;-21
2021/11/27 00:17:45;;;;;;;77.33;39.10;;;;;;;5.80;82.29;99101.63;5049618;28;20051;-21
2021/11/27 00:20:14;;;;;;;73.75;39.47;;;;;;;5.85;83.01;99115.06;5049310;28;20032;-21
2021/11/27 00:22:39;;;;;;;75.05;39.33;;;;;;;5.87;81.74;99110.38;5049709;28;20103;-21
2021/11/27 00:25:06;;;;;;;74.90;40.13;;;;;;;6.16;80.85;99103.72;5049470;28;20497;-21
2021/11/27 00:27:32;;;;;;;78.00;39.50;;;;;;;6.19;80.45;99083.94;5049217;28;20040;-21
2021/11/27 00:29:58;;;;;;;77.72;41.55;;;;;;;6.18;80.53;99082.31;5049597;28;20071;-22
2021/11/27 00:32:24;;;;;;;75.20;38.50;;;;;;;5.96;81.30;99079.19;5049112;28;20089;-21
2021/11/27 00:34:49;;;;;;;90.13;42.92;;;;;;;5.71;82.92;99092.34;5015456;28;20432;-21
2021/11/27 00:37:14;;;;;;;86.65;41.97;;;;;;;6.11;81.42;99085.03;5031320;28;20047;-21
2021/11/27 00:39:41;;;;;;;86.25;43.88;;;;;;;6.35;80.25;99075.47;5049336;28;20048;-21
2021/11/27 00:42:06;;;;;;;83.25;42.33;;;;;;;6.44;80.04;99074.19;5049125;28;20033;-21
2021/11/27 00:44:32;;;;;;;87.25;41.70;;;;;;;6.42;80.59;99068.28;5049159;28;20028;-21
2021/11/27 00:46:57;;;;;;;79.20;40.47;;;;;;;6.13;81.17;99074.19;5031404;28;20033;-21
2021/11/27 00:49:22;;;;;;;85.07;42.30;;;;;;;5.82;83.11;99084.56;5014610;28;20033;-21
2021/11/27 00:51:48;;;;;;;74.80;39.33;;;;;;;6.20;82.44;99064.38;5031214;28;20382;-21
2021/11/27 00:54:15;;;;;;;86.65;43.20;;;;;;;6.51;80.38;99075.97;5048983;28;20040;-21
2021/11/27 00:56:41;;;;;;;77.50;40.53;;;;;;;6.60;79.88;99069.38;5048801;28;20481;-21
2021/11/27 00:59:06;;;;;;;82.03;40.45;;;;;;;6.70;79.29;99063.56;5048948;28;20036;-20
2021/11/27 01:01:32;;;;;;;90.35;42.22;;;;;;;6.42;80.35;99075.44;5048693;28;20036;-21
2021/11/27 01:03:58;;;;;;;87.47;41.55;;;;;;;6.39;81.00;99086.44;5048836;28;20033;-20
2021/11/27 01:06:24;;;;;;;83.20;42.58;;;;;;;6.53;80.48;99095.91;5030990;28;20413;-21
2021/11/27 01:08:50;;;;;;;81.72;40.58;;;;;;;6.29;81.65;99110.75;5048718;28;20476;-21
2021/11/27 01:11:17;;;;;;;100.03;50.63;;;;;;;6.76;79.60;99105.91;5048571;28;20036;-22
2021/11/27 01:13:47;;;;;;;90.68;45.10;;;;;;;7.04;78.25;99116.03;5048603;28;20048;-21
2021/11/27 01:16:13;;;;;;;95.55;45.65;;;;;;;6.69;79.27;99110.44;5048469;28;20075;-21
2021/11/27 01:18:39;;;;;;;96.70;48.35;;;;;;;6.53;79.76;99084.50;5048445;28;20033;-20
2021/11/27 01:21:08;;;;;;;98.82;44.65;;;;;;;6.41;80.88;99093.13;5014243;28;20382;-21
2021/11/27 01:23:33;;;;;;;98.55;43.72;;;;;;;6.44;80.17;99071.53;5048477;28;20033;-21
2021/11/27 01:25:59;;;;;;;97.43;43.58;;;;;;;6.38;80.57;99072.41;5048424;28;20032;-21
2021/11/27 01:28:24;;;;;;;103.38;47.92;;;;;;;6.00;82.12;99089.13;5048435;28;20032;-22
2021/11/27 01:30:52;;;;;;;123.68;56.72;;;;;;;6.15;81.97;99088.88;5048575;28;20032;-21
2021/11/27 01:33:17;;;;;;;149.18;85.50;;;;;;;6.07;82.31;99083.81;5048623;28;20031;-21
2021/11/27 01:35:43;;;;;;;116.25;50.40;;;;;;;5.91;83.26;99074.53;5048327;28;20041;-21
2021/11/27 01:38:08;;;;;;;102.93;47.72;;;;;;;5.92;83.91;99068.19;5013728;28;20025;-21
2021/11/27 01:40:34;;;;;;;112.47;52.67;;;;;;;5.79;83.37;99073.56;5047925;28;20044;-21
2021/11/27 01:42:59;;;;;;;103.30;51.53;;;;;;;5.87;83.96;99072.53;5048165;28;20412;-20
2021/11/27 01:45:25;;;;;;;108.30;48.10;;;;;;;6.07;83.65;99064.47;5048259;28;20029;-21
2021/11/27 01:47:57;;;;;;;96.82;44.28;;;;;;;6.01;83.35;99039.69;5048220;28;20063;-21
2021/11/27 01:50:24;;;;;;;102.25;43.97;;;;;;;5.82;83.68;99059.91;5048224;28;20121;-20
2021/11/27 01:52:49;;;;;;;103.40;44.58;;;;;;;6.04;83.29;99098.28;5030164;28;20489;-21
2021/11/27 01:55:15;;;;;;;97.18;43.70;;;;;;;5.94;83.73;99071.44;5047967;28;20029;-20
2021/11/27 01:57:41;;;;;;;108.57;44.60;;;;;;;5.98;82.94;99067.38;5030141;28;20417;-21
2021/11/27 02:00:08;;;;;;;105.93;45.58;;;;;;;6.18;82.83;99061.16;5030149;28;20440;-21
2021/11/27 02:02:34;;;;;;;104.25;45.92;;;;;;;6.28;82.78;99082.66;5030393;28;20496;-21
2021/11/27 02:04:59;;;;;;;101.97;45.00;;;;;;;6.47;81.47;99099.41;5048062;28;20079;-21
2021/11/27 02:07:25;;;;;;;115.88;46.83;;;;;;;6.38;81.65;99085.63;5047968;28;20029;-21
2021/11/27 02:09:50;;;;;;;100.95;43.90;;;;;;;6.14;82.22;99086.44;5047808;28;20032;-21
2021/11/27 02:12:16;;;;;;;112.78;47.30;;;;;;;6.12;82.23;99062.00;5047773;28;20036;-21
2021/11/27 02:14:41;;;;;;;105.38;44.40;;;;;;;6.15;83.07;99078.28;5047574;28;20056;-21
2021/11/27 02:17:09;;;;;;;111.60;46.90;;;;;;;6.06;83.44;99110.50;5047727;28;20037;-21
2021/11/27 02:19:35;;;;;;;113.40;44.40;;;;;;;6.10;82.88;99117.00;5047864;28;20029;-21
2021/11/27 02:22:00;;;;;;;114.35;46.75;;;;;;;5.89;83.73;99100.38;5029930;28;20029;-21
2021/11/27 02:24:26;;;;;;;119.50;47.25;;;;;;;6.08;83.61;99109.25;5047452;28;20110;-21
2021/11/27 02:26:51;;;;;;;123.30;47.95;;;;;;;5.97;84.46;99115.25;5029989;28;20072;-22
2021/11/27 02:29:21;;;;;;;124.28;49.38;;;;;;;6.00;83.97;99115.59;5047540;28;20053;-22
2021/11/27 02:31:46;;;;;;;;;;;;;;;6.16;84.74;99111.66;5033519;28;20033;-20
2021/11/27 02:34:12;;;;;;;116.75;47.55;;;;;;;5.92;85.58;99110.53;5033710;28;20312;-22
2021/11/27 02:36:39;;;;;;;115.82;46.88;;;;;;;6.00;85.02;99105.03;5051896;28;20025;-21
2021/11/27 02:39:09;;;;;;;114.03;45.63;;;;;;;5.80;86.55;99125.44;5051661;28;20108;-21
2021/11/27 02:41:34;;;;;;;125.15;47.08;;;;;;;5.70;87.07;99077.47;5051767;28;20033;-21
2021/11/27 02:43:59;;;;;;;127.90;47.22;;;;;;;5.88;86.68;99100.59;5051770;28;20159;-21
2021/11/27 02:46:25;;;;;;;129.02;50.28;;;;;;;6.00;85.82;99118.25;5051229;28;20033;-21
2021/11/27 02:48:51;;;;;;;437.42;205.25;;;;;;;6.11;85.89;99111.50;5051357;28;20021;-21
2021/11/27 02:51:16;;;;;;;201.70;82.38;;;;;;;6.38;84.28;99133.31;5033307;28;20112;-21
2021/11/27 02:53:42;;;;;;;147.93;54.92;;;;;;;6.33;83.97;99125.19;5051257;28;20033;-21
2021/11/27 02:56:08;;;;;;;129.45;45.72;;;;;;;6.15;84.45;99117.16;5050727;28;20051;-21
2021/11/27 02:58:33;;;;;;;135.82;48.95;;;;;;;6.48;83.17;99109.00;5051391;28;20040;-21
2021/11/27 03:00:59;;;;;;;130.73;48.92;;;;;;;6.20;84.46;99130.56;5051091;28;20036;-21
2021/11/27 03:03:25;;;;;;;131.30;50.15;;;;;;;6.33;84.35;99122.53;5051044;28;20033;-21
2021/11/27 03:05:51;;;;;;;137.00;50.08;;;;;;;6.35;84.18;99120.47;5050941;28;20539;-20
2021/11/27 03:08:17;;;;;;;128.25;49.55;;;;;;;6.21;84.74;99108.34;5050751;28;20060;-21
2021/11/27 03:10:43;;;;;;;132.00;50.40;;;;;;;6.22;84.75;99102.84;5033255;28;20035;-22
2021/11/27 03:13:09;;;;;;;143.70;53.53;;;;;;;6.18;85.39;99119.38;5051130;28;20405;-20
2021/11/27 03:15:41;;;;;;;135.00;55.17;;;;;;;6.40;84.87;99127.81;5032652;28;20053;-21
2021/11/27 03:18:10;;;;;;;134.80;48.33;;;;;;;6.72;82.91;99141.84;5034020;28;20090;-21
2021/11/27 03:20:35;;;;;;;131.18;49.75;;;;;;;6.55;83.36;99125.63;5050787;28;20040;-21
2021/11/27 03:23:01;;;;;;;149.65;57.08;;;;;;;6.29;84.15;99121.34;5050801;28;20038;-21
2021/11/27 03:25:26;;;;;;;136.07;50.00;;;;;;;6.28;85.05;99156.00;5050566;28;20025;-21
2021/11/27 03:27:52;;;;;;;154.80;54.92;;;;;;;6.35;84.60;99138.22;5051158;28;20036;-21
2021/11/27 03:30:18;;;;;;;136.88;55.33;;;;;;;6.48;84.23;99150.53;5050714;28;20032;-21
2021/11/27 03:32:43;;;;;;;136.57;51.10;;;;;;;6.19;84.82;99134.22;5050406;28;20821;-21
2021/11/27 03:35:09;;;;;;;125.18;50.42;;;;;;;6.12;85.66;99141.41;5050372;28;20036;-21
2021/11/27 03:37:34;;;;;;;127.75;48.17;;;;;;;6.22;85.24;99104.69;5050229;28;20032;-21
2021/11/27 03:40:03;;;;;;;127.88;51.35;;;;;;;6.03;86.49;99109.91;5050454;28;20508;-21
2021/11/27 03:42:29;;;;;;;135.75;49.60;;;;;;;6.04;87.06;99108.88;5049000;28;20837;-21
2021/11/27 03:44:54;;;;;;;123.07;47.35;;;;;;;5.99;87.19;99111.34;5032399;28;20033;-21
2021/11/27 03:47:20;;;;;;;131.30;49.90;;;;;;;6.03;87.43;99127.63;5050476;28;20124;-21
2021/11/27 03:49:46;;;;;;;141.10;49.13;;;;;;;5.90;87.45;99128.47;5032249;28;20036;-21
2021/11/27 03:52:11;;;;;;;143.52;50.17;;;;;;;6.18;86.70;99120.19;5032258;28;20122;-21
2021/11/27 03:54:36;;;;;;;130.05;49.08;;;;;;;6.24;87.08;99129.13;5032450;28;20113;-21
2021/11/27 03:57:02;;;;;;;129.45;48.10;;;;;;;6.29;85.62;99131.94;5050219;28;20033;-21
2021/11/27 03:59:27;;;;;;;148.90;54.33;;;;;;;6.34;85.34;99133.97;5050148;28;20558;-20
2021/11/27 04:01:53;;;;;;;134.65;51.10;;;;;;;6.31;86.37;99140.47;5050230;28;20033;-21
2021/11/27 04:04:19;;;;;;;143.63;48.17;;;;;;;6.59;84.91;99123.38;5049767;28;20033;-21
2021/11/27 04:06:45;;;;;;;142.10;52.25;;;;;;;6.41;84.58;99113.53;5032257;28;20045;-21
2021/11/27 04:09:10;;;;;;;129.98;48.90;;;;;;;6.30;85.21;99146.81;5049679;28;20544;-21
2021/11/27 04:11:39;;;;;;;140.23;48.67;;;;;;;6.02;87.03;99147.97;5049488;28;20087;-20
2021/11/27 04:14:05;;;;;;;135.80;45.88;;;;;;;5.76;87.61;99156.00;5031769;28;20070;-21
2021/11/27 04:16:30;;;;;;;140.15;52.50;;;;;;;5.66;88.75;99137.09;5049377;28;20122;-21
2021/11/27 04:18:56;;;;;;;155.63;53.38;;;;;;;6.09;87.90;99144.47;5049708;28;20404;-21
2021/11/27 04:21:21;;;;;;;155.32;54.30;;;;;;;6.04;86.88;99124.75;5049890;28;20036;-20
2021/11/27 04:23:48;;;;;;;154.05;51.53;;;;;;;6.22;87.07;99136.47;5049581;28;20033;-21
2021/11/27 04:26:13;;;;;;;142.32;48.33;;;;;;;6.07;87.56;99131.47;5049382;28;20097;-21
2021/11/27 04:28:39;;;;;;;148.23;50.83;;;;;;;6.23;86.22;99122.19;5049614;28;20028;-21
2021/11/27 04:31:04;;;;;;;164.98;60.00;;;;;;;6.11;86.83;99145.91;5049722;28;20856;-21
2021/11/27 04:33:30;;;;;;;144.38;50.33;;;;;;;6.16;87.53;99153.22;5049295;28;20059;-20
2021/11/27 04:35:55;;;;;;;136.32;48.72;;;;;;;5.89;88.80;99149.84;5049243;28;20044;-21
2021/11/27 04:38:21;;;;;;;140.93;50.58;;;;;;;5.99;88.26;99095.47;5049161;28;20059;-20
2021/11/27 04:40:47;;;;;;;159.82;63.10;;;;;;;6.12;88.55;99114.94;5049272;28;20412;-20
2021/11/27 04:43:12;;;;;;;132.23;49.22;;;;;;;6.35;86.23;99141.66;5031674;28;20033;-20
2021/11/27 04:45:37;;;;;;;148.15;48.40;;;;;;;6.47;86.07;99141.78;5049023;28;20508;-21
2021/11/27 04:48:03;;;;;;;132.75;47.47;;;;;;;6.12;87.74;99147.50;5015000;28;20067;-21
2021/11/27 04:50:29;;;;;;;138.02;49.28;;;;;;;5.83;89.07;99149.66;5048755;28;20029;-21
2021/11/27 04:52:56;;;;;;;137.70;53.88;;;;;;;6.27;87.43;99136.63;5030555;28;20029;-21
2021/11/27 04:55:21;;;;;;;135.63;48.47;;;;;;;6.47;86.60;99148.94;5049006;28;20401;-21
2021/11/27 04:57:47;;;;;;;126.10;48.10;;;;;;;5.80;88.44;99143.97;5048909;28;20052;-21
2021/11/27 05:00:17;;;;;;;152.20;50.78;;;;;;;6.29;87.36;99147.81;5048615;28;20463;-21
2021/11/27 05:02:43;;;;;;;132.07;42.92;;;;;;;5.97;89.14;99161.03;5048732;28;20029;-21
2021/11/27 05:05:08;;;;;;;68.07;24.63;;;;;;;5.84;89.42;99151.31;5049015;28;20405;-21
2021/11/27 05:07:34;;;;;;;72.57;23.98;;;;;;;6.03;88.66;99170.78;5030930;28;20025;-20
2021/11/27 05:09:59;;;;;;;56.90;21.27;;;;;;;6.28;87.63;99177.97;5048636;28;20033;-21
2021/11/27 05:12:25;;;;;;;53.13;20.15;;;;;;;5.86;87.20;99169.59;5048500;28;20401;-21
2021/11/27 05:14:51;;;;;;;60.72;20.65;;;;;;;5.53;88.52;99164.44;5048573;28;20137;-21
2021/11/27 05:17:16;;;;;;;56.80;19.05;;;;;;;5.31;90.99;99155.94;5048577;28;20834;-21
2021/11/27 05:19:41;;;;;;;54.05;19.00;;;;;;;5.74;89.09;99139.53;5048913;28;20040;-21
2021/11/27 05:22:07;;;;;;;58.78;21.58;;;;;;;5.96;87.30;99158.59;5048256;28;20463;-23
2021/11/27 05:24:32;;;;;;;62.50;21.25;;;;;;;5.58;88.80;99173.38;5048487;28;20094;-21
2021/11/27 05:26:58;;;;;;;52.40;20.02;;;;;;;6.00;87.41;99176.47;5048570;28;20024;-21
2021/11/27 05:29:23;;;;;;;264.33;167.65;;;;;;;5.77;86.96;99155.00;5030600;28;20033;-21
2021/11/27 05:31:52;;;;;;;57.47;22.10;;;;;;;5.96;87.13;99188.50;5048144;28;20021;-21
2021/11/27 05:36:46;;;;;;;96.80;52.22;;;;;;;5.62;88.39;99177.22;5048454;28;20099;-21
2021/11/27 05:39:12;;;;;;;64.72;22.70;;;;;;;5.77;87.41;99202.63;5014166;28;20040;-21
2021/11/27 05:41:38;;;;;;;70.05;27.15;;;;;;;5.63;89.06;99185.97;5048243;28;20483;-21
2021/11/27 05:44:04;;;;;;;64.47;24.73;;;;;;;5.69;88.35;99211.59;5030407;28;20029;-20
2021/11/27 05:46:29;;;;;;;63.15;21.35;;;;;;;5.60;88.67;99187.19;5047803;28;20573;-21
2021/11/27 05:48:55;;;;;;;82.22;29.13;;;;;;;5.76;88.67;99180.66;5048359;28;20036;-21
2021/11/27 05:51:20;;;;;;;86.70;31.30;;;;;;;5.75;88.19;99183.50;5048098;28;20616;-21
2021/11/27 05:53:45;;;;;;;58.53;22.08;;;;;;;5.71;89.20;99209.53;5048213;28;20029;-21
2021/11/27 05:56:11;;;;;;;64.68;22.02;;;;;;;5.58;89.81;99220.16;5047837;28;20082;-20
2021/11/27 05:58:36;;;;;;;58.65;20.88;;;;;;;5.87;88.20;99233.94;5048145;28;20512;-21
2021/11/27 06:01:10;;;;;;;64.40;21.92;;;;;;;5.60;88.46;99232.16;5048805;28;20033;-21
2021/11/27 06:03:36;;;;;;;64.75;20.80;;;;;;;6.10;87.20;99244.06;5047881;28;20059;-21
2021/11/27 06:06:01;;;;;;;60.72;21.40;;;;;;;6.20;87.40;99244.41;5049769;28;20025;-21
2021/11/27 06:08:27;;;;;;;65.75;21.58;;;;;;;6.42;85.62;99232.50;5051820;28;20126;-21
2021/11/27 06:10:52;;;;;;;59.38;20.08;;;;;;;5.63;88.13;99234.38;5051999;28;20033;-21
2021/11/27 06:13:18;;;;;;;57.03;19.75;;;;;;;5.46;89.76;99249.06;5034188;28;20064;-23
2021/11/27 06:15:43;;;;;;;79.78;31.05;;;;;;;5.92;88.00;99266.66;5034446;28;20255;-21
2021/11/27 06:18:09;;;;;;;55.40;20.45;;;;;;;5.97;86.91;99288.06;5033723;28;20037;-21
2021/11/27 06:20:34;;;;;;;66.57;20.60;;;;;;;5.73;88.32;99270.19;5051687;28;20029;-21
2021/11/27 06:22:59;;;;;;;78.35;32.10;;;;;;;5.41;90.49;99288.53;5051957;28;20033;-21
2021/11/27 06:25:26;;;;;;;67.18;23.58;;;;;;;5.89;88.37;99290.91;5052008;28;20037;-21
2021/11/27 06:27:51;;;;;;;75.78;22.05;;;;;;;6.00;88.33;99286.84;5051714;28;20021;-21
2021/11/27 06:30:17;;;;;;;65.15;20.92;;;;;;;6.24;86.71;99293.28;5051708;28;20040;-20
2021/11/27 06:32:42;;;;;;;77.32;24.40;;;;;;;6.47;85.60;99303.38;5051615;28;20036;-21
2021/11/27 06:35:08;;;;;;;78.22;27.45;;;;;;;5.97;87.98;99311.88;5051596;28;20044;-21
2021/11/27 06:37:33;;;;;;;73.80;22.50;;;;;;;5.99;87.74;99314.34;5051765;28;20086;-21
2021/11/27 06:40:00;;;;;;;74.28;23.13;;;;;;;6.13;87.88;99307.16;5051484;28;20051;-21
2021/11/27 06:42:26;;;;;;;121.80;52.60;;;;;;;6.04;88.12;99269.50;5033430;28;20029;-21
2021/11/27 06:44:51;;;;;;;78.30;27.70;;;;;;;5.69;89.88;99274.25;5033796;28;20041;-21
2021/11/27 06:47:20;;;;;;;99.78;42.05;;;;;;;6.06;89.55;99291.28;5051260;28;20021;-21
2021/11/27 06:49:45;;;;;;;91.30;32.83;;;;;;;6.35;87.76;99303.19;5033486;28;20400;-21
2021/11/27 06:52:11;;;;;;;96.10;35.45;;;;;;;6.02;89.61;99285.59;5051104;28;20043;-21
2021/11/27 06:54:36;;;;;;;84.15;28.70;;;;;;;6.09;88.63;99296.19;5051264;28;20031;-21
2021/11/27 06:57:02;;;;;;;86.03;27.15;;;;;;;6.51;87.76;99309.06;5051578;28;20504;-21
2021/11/27 06:59:27;;;;;;;90.30;27.85;;;;;;;6.07;89.79;99313.28;5051306;28;20784;-21
2021/11/27 07:01:53;;;;;;;88.82;28.63;;;;;;;6.04;89.52;99315.31;5051068;28;20040;-21
2021/11/27 07:04:19;;;;;;;87.95;30.23;;;;;;;6.22;89.60;99314.66;5050985;28;20040;-21
2021/11/27 07:06:45;;;;;;;69.15;26.38;;;;;;;6.34;88.63;99303.44;5050888;28;20371;-21
2021/11/27 07:09:10;;;;;;;65.30;21.95;;;;;;;5.87;89.74;99308.03;5016529;28;20126;-21
2021/11/27 07:11:35;;;;;;;66.47;22.45;;;;;;;5.40;92.09;99297.50;5033049;28;20033;-21
2021/11/27 07:14:01;;;;;;;71.20;26.48;;;;;;;5.50;92.88;99312.94;5050850;28;20036;-21
2021/11/27 07:16:27;;;;;;;63.75;22.50;;;;;;;5.79;91.80;99295.81;5049921;28;20052;-21
2021/11/27 07:18:52;;;;;;;72.88;23.27;;;;;;;6.30;89.33;99324.22;5050813;28;20047;-24
2021/11/27 07:21:17;;;;;;;59.17;21.77;;;;;;;6.35;88.83;99327.03;5050879;28;20413;-21
2021/11/27 07:23:43;;;;;;;57.22;20.63;;;;;;;6.19;89.17;99330.97;5050708;28;20056;-21
2021/11/27 07:26:08;;;;;;;66.68;22.70;;;;;;;6.41;87.99;99326.19;5050621;28;20036;-21
2021/11/27 07:28:34;;;;;;;71.00;23.88;;;;;;;6.69;87.78;99317.13;5050505;28;20028;-21
2021/11/27 07:31:00;;;;;;;57.25;21.52;;;;;;;6.81;86.26;99302.19;5050724;28;20405;-22
2021/11/27 07:33:25;;;;;;;81.68;26.23;;;;;;;6.93;86.31;99312.13;5050582;28;20030;-21
2021/11/27 07:35:51;;;;;;;63.42;24.13;;;;;;;6.84;85.86;99316.84;5032638;28;20028;-21
2021/11/27 07:38:16;;;;;;;66.32;23.70;;;;;;;7.11;85.16;99314.84;5050313;28;20040;-21
2021/11/27 07:40:42;;;;;;;63.53;22.92;;;;;;;7.18;84.21;99320.91;5050287;28;20033;-22
2021/11/27 07:43:07;;;;;;;62.53;25.10;;;;;;;6.92;85.87;99313.13;5050451;28;20435;-22
2021/11/27 07:45:34;;;;;;;66.25;22.83;;;;;;;6.90;86.64;99317.81;5050598;28;20033;-22
2021/11/27 07:48:00;;;;;;;63.88;25.65;;;;;;;7.09;85.42;99327.50;5050347;28;20067;-22
2021/11/27 07:50:25;;;;;;;60.95;22.98;;;;;;;6.99;85.89;99327.97;5050239;28;20159;-21
2021/11/27 07:52:51;;;;;;;111.35;36.03;;;;;;;7.30;85.22;99314.91;5049956;28;20036;-22
2021/11/27 07:55:16;;;;;;;101.63;34.05;;;;;;;7.05;85.40;99313.06;5050203;28;20071;-22
2021/11/27 07:57:42;;;;;;;82.93;33.60;;;;;;;7.22;85.14;99311.50;5032227;28;20475;-21
2021/11/27 08:00:08;;;;;;;83.13;30.38;;;;;;;7.24;85.34;99313.94;5049840;28;20158;-22
2021/11/27 08:02:33;;;;;;;96.35;32.58;;;;;;;7.20;84.57;99323.34;5049978;28;20025;-22
2021/11/27 08:04:59;;;;;;;109.55;36.22;;;;;;;6.98;85.19;99314.91;5050301;28;20393;-22
2021/11/27 08:07:24;;;;;;;92.47;32.40;;;;;;;6.79;86.95;99316.66;5049937;28;20032;-22
2021/11/27 08:09:50;;;;;;;100.82;38.08;;;;;;;6.71;87.36;99298.38;5050123;28;20033;-21
2021/11/27 08:12:15;;;;;;;79.03;30.25;;;;;;;6.65;87.54;99286.78;5049377;28;20037;-21
2021/11/27 08:14:41;;;;;;;88.43;35.47;;;;;;;7.06;86.79;99298.75;5049408;28;20064;-21
2021/11/27 08:17:07;;;;;;;87.15;32.33;;;;;;;7.19;85.82;99300.50;5049520;28;20029;-21
2021/11/27 08:19:32;;;;;;;88.20;38.72;;;;;;;7.35;85.21;99312.41;5031752;28;20033;-21
2021/11/27 08:21:58;;;;;;;116.53;54.08;;;;;;;7.23;85.26;99312.28;5049634;28;20033;-21
2021/11/27 08:24:25;;;;;;;177.30;103.53;;;;;;;7.13;84.95;99288.94;5049316;28;20408;-21
2021/11/27 08:26:50;;;;;;;80.05;34.47;;;;;;;7.14;86.44;99289.72;5031833;28;20098;-21
2021/11/27 08:29:17;;;;;;;76.45;31.23;;;;;;;7.10;85.87;99278.75;5049066;28;20435;-21
2021/11/27 08:31:43;;;;;;;152.15;58.15;;;;;;;7.75;83.69;99277.59;5049468;28;20040;-21
2021/11/27 08:34:08;;;;;;;93.88;39.17;;;;;;;7.65;82.67;99284.19;5031155;28;20045;-21
2021/11/27 08:36:34;;;;;;;90.18;36.83;;;;;;;7.67;83.08;99291.13;5031550;28;20477;-21
2021/11/27 08:38:59;;;;;;;78.47;31.45;;;;;;;7.50;84.56;99283.72;5031481;28;20171;-23
2021/11/27 08:41:25;;;;;;;77.40;29.75;;;;;;;7.75;82.37;99277.59;5049383;28;20029;-21
2021/11/27 08:43:50;;;;;;;87.88;34.17;;;;;;;7.74;82.99;99315.75;5049350;28;20818;-22
2021/11/27 08:46:16;;;;;;;83.93;35.20;;;;;;;7.75;82.53;99301.47;5049054;28;20496;-21
2021/11/27 08:48:41;;;;;;;73.45;28.60;;;;;;;7.59;83.50;99311.59;5049194;28;20044;-21
2021/11/27 08:51:08;;;;;;;58.53;24.70;;;;;;;7.35;83.94;99304.47;5049162;28;20037;-22
2021/11/27 08:53:34;;;;;;;63.38;26.83;;;;;;;7.53;82.60;99280.63;5031262;28;20037;-21
2021/11/27 08:56:00;;;;;;;88.32;36.17;;;;;;;7.83;82.75;99295.88;5048721;28;20116;-21
2021/11/27 08:58:26;;;;;;;87.80;35.75;;;;;;;8.01;82.54;99300.41;5048784;28;20516;-21
2021/11/27 09:00:51;;;;;;;71.50;29.30;;;;;;;7.87;83.13;99289.09;5048907;28;20397;-21
2021/11/27 09:03:17;;;;;;;87.78;39.58;;;;;;;8.17;82.25;99296.31;5048824;28;20036;-21
2021/11/27 09:05:42;;;;;;;95.13;39.08;;;;;;;8.13;82.07;99300.44;5048735;28;20052;-21
2021/11/27 09:08:08;;;;;;;72.88;29.25;;;;;;;8.06;83.16;99295.22;5048538;28;20479;-22
2021/11/27 09:10:33;;;;;;;63.50;24.55;;;;;;;7.59;83.84;99292.22;5048509;28;20029;-21
2021/11/27 09:12:59;;;;;;;70.88;29.10;;;;;;;7.39;83.99;99257.91;5048493;28;20044;-21
2021/11/27 09:15:25;;;;;;;69.45;29.27;;;;;;;7.84;82.61;99292.97;5048700;28;20049;-21
2021/11/27 09:17:50;;;;;;;65.60;26.63;;;;;;;7.88;82.40;99288.06;5048612;28;20056;-22
2021/11/27 09:20:16;;;;;;;62.17;25.65;;;;;;;8.05;81.95;99277.69;5048517;28;20040;-21
2021/11/27 09:22:41;;;;;;;223.88;111.93;;;;;;;7.89;82.62;99257.03;5048451;28;20025;-21
2021/11/27 09:25:07;;;;;;;321.08;178.18;;;;;;;8.03;82.94;99263.81;5048629;28;20044;-21
2021/11/27 09:27:32;;;;;;;72.78;35.50;;;;;;;8.22;80.33;99284.00;5030810;28;20108;-21
2021/11/27 09:29:58;;;;;;;76.80;31.63;;;;;;;8.01;81.51;99295.88;5030603;28;20067;-21
2021/11/27 09:32:23;;;;;;;64.72;28.40;;;;;;;8.24;80.87;99292.56;5048289;28;20028;-21
2021/11/27 09:34:49;;;;;;;80.93;34.53;;;;;;;8.29;80.76;99283.91;5048465;28;20043;-21
2021/11/27 09:37:16;;;;;;;68.43;29.02;;;;;;;8.29;80.29;99273.28;5048519;28;20448;-21
2021/11/27 09:39:43;;;;;;;80.97;40.08;;;;;;;8.28;80.42;99271.69;5048220;28;20036;-20
2021/11/27 09:42:12;;;;;;;77.00;31.73;;;;;;;8.30;80.62;99272.25;5048177;28;20028;-21
2021/11/27 09:44:37;;;;;;;64.00;27.40;;;;;;;8.02;81.53;99262.19;5048450;28;20506;-21
2021/11/27 09:47:03;;;;;;;72.32;28.38;;;;;;;7.85;83.58;99267.25;5030776;28;20025;-21
2021/11/27 09:49:28;;;;;;;74.00;28.33;;;;;;;7.36;86.02;99271.63;5030566;28;20528;-21
2021/11/27 09:51:54;;;;;;;69.25;27.88;;;;;;;7.52;85.61;99257.78;5048448;28;20029;-21
2021/11/27 09:54:20;;;;;;;67.63;28.05;;;;;;;7.31;86.07;99285.50;5047745;28;20033;-21
2021/11/27 09:56:47;;;;;;;65.55;27.20;;;;;;;7.65;85.76;99284.19;5048172;28;20095;-21
2021/11/27 09:59:12;;;;;;;68.07;29.70;;;;;;;7.64;84.26;99260.53;5048159;28;20036;-21
2021/11/27 10:01:38;;;;;;;68.65;27.83;;;;;;;7.43;85.18;99265.19;5030434;28;20029;-21
2021/11/27 10:04:08;;;;;;;80.15;29.50;;;;;;;7.59;84.71;99266.50;5048097;28;20086;-21
2021/11/27 10:06:38;;;;;;;68.57;27.50;;;;;;;7.65;84.56;99235.63;5047998;28;20108;-21
2021/11/27 10:09:06;;;;;;;68.50;27.35;;;;;;;7.68;83.91;99252.94;5047967;28;20512;-21
2021/11/27 10:11:32;;;;;;;78.18;35.42;;;;;;;7.69;84.08;99220.06;5047859;28;20056;-22
2021/11/27 10:13:57;;;;;;;85.90;41.35;;;;;;;7.86;83.91;99231.72;5013888;28;20489;-22
2021/11/27 10:16:23;;;;;;;72.78;30.17;;;;;;;7.74;84.63;99228.16;5047495;28;20414;-21
2021/11/27 10:19:09;;;;;;;66.53;28.20;;;;;;;8.01;83.00;99213.56;5047765;28;20041;-22
2021/11/27 10:21:35;;;;;;;68.32;28.70;;;;;;;7.91;83.38;99229.22;5030080;28;20064;-21
2021/11/27 10:24:06;;;;;;;76.22;31.83;;;;;;;8.02;83.79;99220.50;5047793;28;20029;-22
2021/11/27 10:26:32;;;;;;;71.47;29.10;;;;;;;8.31;81.88;99218.09;5014046;28;20080;-21
2021/11/27 10:29:17;;;;;;;72.63;30.52;;;;;;;8.09;82.66;99227.56;5047894;28;20034;-22
2021/11/27 10:31:43;;;;;;;70.03;28.88;;;;;;;8.22;81.89;99232.72;5047664;28;20025;-22
2021/11/27 10:43:16;;;;;;;72.93;28.73;;;;;;;6.87;88.57;99222.84;4800816;27;8306052;-21
2021/11/27 10:45:41;;;;;;;67.80;27.33;;;;;;;7.12;87.80;99226.31;5086768;28;20131;-22
2021/11/27 10:48:14;;;;;;;77.50;30.02;;;;;;;7.57;85.97;99244.66;5084507;28;20036;-22
2021/11/27 10:50:43;;;;;;;70.70;29.45;;;;;;;7.78;84.79;99245.28;5085989;28;20028;-21
2021/11/27 10:53:16;;;;;;;85.40;33.80;;;;;;;7.72;84.12;99224.94;5085459;28;20480;-21
2021/11/27 10:55:41;;;;;;;70.18;28.60;;;;;;;7.80;84.81;99216.66;5085569;28;20021;-21
2021/11/27 10:58:08;;;;;;;69.25;28.23;;;;;;;8.31;82.71;99223.41;5101282;28;20051;-22
2021/11/27 11:00:43;;;;;;;66.05;27.35;;;;;;;8.14;82.10;99233.03;5085606;28;20020;-21
2021/11/27 11:03:28;;;;;;;68.70;30.08;;;;;;;8.33;82.20;99231.16;5085582;28;20040;-21
2021/11/27 11:05:55;;;;;;;70.70;31.95;;;;;;;8.50;80.41;99216.25;5085451;28;20029;-21
2021/11/27 11:08:37;;;;;;;83.95;34.00;;;;;;;8.56;80.38;99233.94;5085433;28;20072;-21
2021/11/27 11:11:21;;;;;;;70.72;27.40;;;;;;;8.24;82.32;99228.00;5084748;28;20112;-21
2021/11/27 11:13:52;;;;;;;75.95;30.15;;;;;;;8.17;81.39;99211.31;5085419;28;20111;-21
2021/11/27 11:16:18;;;;;;;74.25;29.25;;;;;;;8.39;80.92;99247.00;5085142;28;20028;-21
2021/11/27 11:18:44;;;;;;;81.75;30.80;;;;;;;8.54;81.39;99243.16;5085279;28;20464;-21
2021/11/27 11:21:09;;;;;;;75.15;27.80;;;;;;;8.61;80.01;99217.31;5085065;28;20116;-21
2021/11/27 11:23:36;;;;;;;59.05;24.42;;;;;;;8.29;80.25;99201.56;5084766;28;20032;-21
2021/11/27 11:26:14;;;;;;;70.55;29.10;;;;;;;8.13;81.35;99205.69;5085148;28;20028;-21
2021/11/27 11:28:53;;;;;;;73.88;31.27;;;;;;;8.48;81.33;99199.72;5085081;28;20581;-22